Terminal Aerodrome Forecast
Issued by NWS

Current Version | Previous Version | Text Only | Print | Product List | Glossary On
Versions: 1 2 3 4 5 6 7 8 9 10 11 12 13 14 15 16 17 18 19 20 21
000
FTUS46 KEKA 301745
TAFCEC
TAF
KCEC 301745Z 3018/3118 06004KT 1SM BR VV002
     FM301900 01010KT P6SM FEW250
     FM302100 33012G20KT P6SM FEW250
     FM310100 36008KT P6SM FEW250
     FM310500 03005KT 6SM BR SCT010
     FM311700 03004KT P6SM SKC=

USA.gov is the U.S. government's official web portal to all federal, state and local government web resources and services.